sensor_id;sensor_type;location;lat;lon;timestamp;temperature;humidity
12704;DHT22;6416;52.182;7.650;2022-07-24T00:00:15;21.50;50.90
12704;DHT22;6416;52.182;7.650;2022-07-24T00:02:40;21.50;51.00
12704;DHT22;6416;52.182;7.650;2022-07-24T00:05:06;21.40;51.10
12704;DHT22;6416;52.182;7.650;2022-07-24T00:07:32;21.40;51.20
12704;DHT22;6416;52.182;7.650;2022-07-24T00:09:58;21.30;51.10
12704;DHT22;6416;52.182;7.650;2022-07-24T00:12:23;21.30;51.20
12704;DHT22;6416;52.182;7.650;2022-07-24T00:14:49;21.20;51.20
12704;DHT22;6416;52.182;7.650;2022-07-24T00:17:15;21.20;51.30
12704;DHT22;6416;52.182;7.650;2022-07-24T00:19:40;21.20;51.40
12704;DHT22;6416;52.182;7.650;2022-07-24T00:22:06;21.20;51.50
12704;DHT22;6416;52.182;7.650;2022-07-24T00:24:31;21.10;51.40
12704;DHT22;6416;52.182;7.650;2022-07-24T00:26:57;21.10;51.50
12704;DHT22;6416;52.182;7.650;2022-07-24T00:29:22;21.10;51.60
12704;DHT22;6416;52.182;7.650;2022-07-24T00:31:48;21.10;51.70
12704;DHT22;6416;52.182;7.650;2022-07-24T00:34:13;21.00;51.60
12704;DHT22;6416;52.182;7.650;2022-07-24T00:36:39;21.00;51.80
12704;DHT22;6416;52.182;7.650;2022-07-24T00:39:04;21.00;52.00
12704;DHT22;6416;52.182;7.650;2022-07-24T00:41:30;20.90;51.90
12704;DHT22;6416;52.182;7.650;2022-07-24T00:44:07;20.90;52.00
12704;DHT22;6416;52.182;7.650;2022-07-24T00:46:34;20.90;53.00
12704;DHT22;6416;52.182;7.650;2022-07-24T00:49:01;20.80;52.80
12704;DHT22;6416;52.182;7.650;2022-07-24T00:51:26;20.80;52.20
12704;DHT22;6416;52.182;7.650;2022-07-24T00:53:52;20.70;52.20
12704;DHT22;6416;52.182;7.650;2022-07-24T00:56:18;20.70;52.40
12704;DHT22;6416;52.182;7.650;2022-07-24T00:58:45;20.70;52.50
12704;DHT22;6416;52.182;7.650;2022-07-24T01:01:11;20.60;52.50
12704;DHT22;6416;52.182;7.650;2022-07-24T01:03:36;20.70;52.60
12704;DHT22;6416;52.182;7.650;2022-07-24T01:06:02;20.60;52.60
12704;DHT22;6416;52.182;7.650;2022-07-24T01:08:27;20.60;52.70
12704;DHT22;6416;52.182;7.650;2022-07-24T01:10:53;20.60;52.80
12704;DHT22;6416;52.182;7.650;2022-07-24T01:13:19;20.50;52.90
12704;DHT22;6416;52.182;7.650;2022-07-24T01:15:47;20.50;53.10
12704;DHT22;6416;52.182;7.650;2022-07-24T01:18:12;20.50;53.40
12704;DHT22;6416;52.182;7.650;2022-07-24T01:20:38;20.50;53.30
12704;DHT22;6416;52.182;7.650;2022-07-24T01:23:03;20.40;53.20
12704;DHT22;6416;52.182;7.650;2022-07-24T01:25:29;20.40;53.30
12704;DHT22;6416;52.182;7.650;2022-07-24T01:27:55;20.40;53.50
12704;DHT22;6416;52.182;7.650;2022-07-24T01:30:20;20.30;53.50
12704;DHT22;6416;52.182;7.650;2022-07-24T01:32:46;20.30;53.70
12704;DHT22;6416;52.182;7.650;2022-07-24T01:35:11;20.30;53.80
12704;DHT22;6416;52.182;7.650;2022-07-24T01:37:37;20.20;53.70
12704;DHT22;6416;52.182;7.650;2022-07-24T01:40:03;20.20;53.90
12704;DHT22;6416;52.182;7.650;2022-07-24T01:42:29;20.20;53.90
12704;DHT22;6416;52.182;7.650;2022-07-24T01:44:54;20.20;54.00
12704;DHT22;6416;52.182;7.650;2022-07-24T01:47:20;20.20;54.00
12704;DHT22;6416;52.182;7.650;2022-07-24T01:49:45;20.10;54.00
12704;DHT22;6416;52.182;7.650;2022-07-24T01:52:11;20.10;54.00
12704;DHT22;6416;52.182;7.650;2022-07-24T01:54:36;20.10;54.10
12704;DHT22;6416;52.182;7.650;2022-07-24T01:57:02;20.00;54.20
12704;DHT22;6416;52.182;7.650;2022-07-24T01:59:27;20.00;54.30
12704;DHT22;6416;52.182;7.650;2022-07-24T02:01:53;20.00;54.40
12704;DHT22;6416;52.182;7.650;2022-07-24T02:04:19;19.90;54.40
12704;DHT22;6416;52.182;7.650;2022-07-24T02:06:44;19.90;54.50
12704;DHT22;6416;52.182;7.650;2022-07-24T02:09:09;19.90;54.60
12704;DHT22;6416;52.182;7.650;2022-07-24T02:11:35;19.80;54.60
12704;DHT22;6416;52.182;7.650;2022-07-24T02:14:00;19.80;54.60
12704;DHT22;6416;52.182;7.650;2022-07-24T02:16:26;19.80;54.70
12704;DHT22;6416;52.182;7.650;2022-07-24T02:18:52;19.70;54.70
12704;DHT22;6416;52.182;7.650;2022-07-24T02:21:17;19.70;54.80
12704;DHT22;6416;52.182;7.650;2022-07-24T02:23:43;19.70;54.90
12704;DHT22;6416;52.182;7.650;2022-07-24T02:26:09;19.70;54.90
12704;DHT22;6416;52.182;7.650;2022-07-24T02:28:34;19.60;55.00
12704;DHT22;6416;52.182;7.650;2022-07-24T02:31:00;19.60;55.00
12704;DHT22;6416;52.182;7.650;2022-07-24T02:33:25;19.60;55.10
12704;DHT22;6416;52.182;7.650;2022-07-24T02:35:51;19.60;55.10
12704;DHT22;6416;52.182;7.650;2022-07-24T02:38:16;19.50;55.00
12704;DHT22;6416;52.182;7.650;2022-07-24T02:40:42;19.50;55.00
12704;DHT22;6416;52.182;7.650;2022-07-24T02:43:07;19.50;55.20
12704;DHT22;6416;52.182;7.650;2022-07-24T02:45:33;19.50;55.30
12704;DHT22;6416;52.182;7.650;2022-07-24T02:47:58;19.50;55.40
12704;DHT22;6416;52.182;7.650;2022-07-24T02:50:28;19.40;55.40
12704;DHT22;6416;52.182;7.650;2022-07-24T02:52:54;19.40;55.50
12704;DHT22;6416;52.182;7.650;2022-07-24T02:55:19;19.40;55.50
12704;DHT22;6416;52.182;7.650;2022-07-24T02:57:45;19.40;55.60
12704;DHT22;6416;52.182;7.650;2022-07-24T03:00:13;19.30;55.60
12704;DHT22;6416;52.182;7.650;2022-07-24T03:02:39;19.30;55.80
12704;DHT22;6416;52.182;7.650;2022-07-24T03:05:06;19.30;55.80
12704;DHT22;6416;52.182;7.650;2022-07-24T03:07:34;19.30;55.90
12704;DHT22;6416;52.182;7.650;2022-07-24T03:10:00;19.20;56.10
12704;DHT22;6416;52.182;7.650;2022-07-24T03:12:25;19.30;56.00
12704;DHT22;6416;52.182;7.650;2022-07-24T03:14:51;19.20;56.00
12704;DHT22;6416;52.182;7.650;2022-07-24T03:17:16;19.20;56.20
12704;DHT22;6416;52.182;7.650;2022-07-24T03:19:42;19.10;56.20
12704;DHT22;6416;52.182;7.650;2022-07-24T03:22:07;19.10;56.30
12704;DHT22;6416;52.182;7.650;2022-07-24T03:24:33;19.10;56.40
12704;DHT22;6416;52.182;7.650;2022-07-24T03:26:58;19.10;56.40
12704;DHT22;6416;52.182;7.650;2022-07-24T03:29:24;19.10;56.50
12704;DHT22;6416;52.182;7.650;2022-07-24T03:31:49;19.10;56.50
12704;DHT22;6416;52.182;7.650;2022-07-24T03:34:15;19.10;56.50
12704;DHT22;6416;52.182;7.650;2022-07-24T03:36:40;19.10;56.60
12704;DHT22;6416;52.182;7.650;2022-07-24T03:39:06;19.10;56.70
12704;DHT22;6416;52.182;7.650;2022-07-24T03:41:32;19.10;56.80
12704;DHT22;6416;52.182;7.650;2022-07-24T03:43:58;19.00;56.80
12704;DHT22;6416;52.182;7.650;2022-07-24T03:46:23;19.00;56.80
12704;DHT22;6416;52.182;7.650;2022-07-24T03:48:49;19.00;56.90
12704;DHT22;6416;52.182;7.650;2022-07-24T03:51:15;19.00;57.60
12704;DHT22;6416;52.182;7.650;2022-07-24T03:53:41;19.00;57.00
12704;DHT22;6416;52.182;7.650;2022-07-24T03:56:08;19.00;57.10
12704;DHT22;6416;52.182;7.650;2022-07-24T03:58:33;19.00;57.20
12704;DHT22;6416;52.182;7.650;2022-07-24T04:00:59;19.00;57.20
12704;DHT22;6416;52.182;7.650;2022-07-24T04:03:25;19.00;57.40
12704;DHT22;6416;52.182;7.650;2022-07-24T04:05:50;18.90;57.30
12704;DHT22;6416;52.182;7.650;2022-07-24T04:08:16;19.00;57.50
12704;DHT22;6416;52.182;7.650;2022-07-24T04:10:41;19.00;57.50
12704;DHT22;6416;52.182;7.650;2022-07-24T04:13:07;19.00;57.50
12704;DHT22;6416;52.182;7.650;2022-07-24T04:15:32;19.00;57.50
12704;DHT22;6416;52.182;7.650;2022-07-24T04:17:58;19.00;57.60
12704;DHT22;6416;52.182;7.650;2022-07-24T04:20:23;19.00;57.70
12704;DHT22;6416;52.182;7.650;2022-07-24T04:22:52;19.00;57.80
12704;DHT22;6416;52.182;7.650;2022-07-24T04:25:18;19.00;58.10
12704;DHT22;6416;52.182;7.650;2022-07-24T04:27:43;19.00;57.80
12704;DHT22;6416;52.182;7.650;2022-07-24T04:30:10;19.10;57.90
12704;DHT22;6416;52.182;7.650;2022-07-24T04:32:36;19.10;58.00
12704;DHT22;6416;52.182;7.650;2022-07-24T04:35:03;19.10;58.00
12704;DHT22;6416;52.182;7.650;2022-07-24T04:37:28;19.10;58.10
12704;DHT22;6416;52.182;7.650;2022-07-24T04:39:54;19.20;58.40
12704;DHT22;6416;52.182;7.650;2022-07-24T04:42:19;19.20;58.50
12704;DHT22;6416;52.182;7.650;2022-07-24T04:44:45;19.30;58.60
12704;DHT22;6416;52.182;7.650;2022-07-24T04:47:10;19.40;58.60
12704;DHT22;6416;52.182;7.650;2022-07-24T04:49:36;19.50;58.80
12704;DHT22;6416;52.182;7.650;2022-07-24T04:52:01;19.60;58.90
12704;DHT22;6416;52.182;7.650;2022-07-24T04:54:27;19.70;58.80
12704;DHT22;6416;52.182;7.650;2022-07-24T04:56:52;19.80;58.70
12704;DHT22;6416;52.182;7.650;2022-07-24T04:59:18;19.90;58.70
12704;DHT22;6416;52.182;7.650;2022-07-24T05:01:43;20.00;58.60
12704;DHT22;6416;52.182;7.650;2022-07-24T05:04:09;20.10;58.70
12704;DHT22;6416;52.182;7.650;2022-07-24T05:06:34;20.20;58.80
12704;DHT22;6416;52.182;7.650;2022-07-24T05:09:00;20.30;58.70
12704;DHT22;6416;52.182;7.650;2022-07-24T05:11:25;20.40;58.70
12704;DHT22;6416;52.182;7.650;2022-07-24T05:13:51;20.60;58.80
12704;DHT22;6416;52.182;7.650;2022-07-24T05:16:16;20.70;58.90
12704;DHT22;6416;52.182;7.650;2022-07-24T05:18:42;20.80;58.80
12704;DHT22;6416;52.182;7.650;2022-07-24T05:21:07;20.90;58.70
12704;DHT22;6416;52.182;7.650;2022-07-24T05:23:33;21.00;58.60
12704;DHT22;6416;52.182;7.650;2022-07-24T05:25:58;21.10;58.50
12704;DHT22;6416;52.182;7.650;2022-07-24T05:28:24;21.20;58.40
12704;DHT22;6416;52.182;7.650;2022-07-24T05:30:49;21.30;58.30
12704;DHT22;6416;52.182;7.650;2022-07-24T05:33:15;21.40;58.30
12704;DHT22;6416;52.182;7.650;2022-07-24T05:35:40;21.50;58.40
12704;DHT22;6416;52.182;7.650;2022-07-24T05:38:06;21.60;58.40
12704;DHT22;6416;52.182;7.650;2022-07-24T05:40:31;21.80;58.60
12704;DHT22;6416;52.182;7.650;2022-07-24T05:42:57;21.90;58.50
12704;DHT22;6416;52.182;7.650;2022-07-24T05:45:22;22.10;58.60
12704;DHT22;6416;52.182;7.650;2022-07-24T05:47:48;22.20;58.40
12704;DHT22;6416;52.182;7.650;2022-07-24T05:50:14;22.40;58.30
12704;DHT22;6416;52.182;7.650;2022-07-24T05:52:40;22.60;58.30
12704;DHT22;6416;52.182;7.650;2022-07-24T05:55:07;22.70;58.00
12704;DHT22;6416;52.182;7.650;2022-07-24T05:57:33;22.90;57.80
12704;DHT22;6416;52.182;7.650;2022-07-24T05:59:59;23.10;57.70
12704;DHT22;6416;52.182;7.650;2022-07-24T06:02:24;23.20;57.60
12704;DHT22;6416;52.182;7.650;2022-07-24T06:04:50;23.40;57.50
12704;DHT22;6416;52.182;7.650;2022-07-24T06:07:15;23.60;57.40
12704;DHT22;6416;52.182;7.650;2022-07-24T06:09:41;23.70;57.30
12704;DHT22;6416;52.182;7.650;2022-07-24T06:12:07;23.90;57.30
12704;DHT22;6416;52.182;7.650;2022-07-24T06:14:33;24.10;57.00
12704;DHT22;6416;52.182;7.650;2022-07-24T06:16:59;24.30;56.70
12704;DHT22;6416;52.182;7.650;2022-07-24T06:19:24;24.40;56.50
12704;DHT22;6416;52.182;7.650;2022-07-24T06:21:50;24.60;56.50
12704;DHT22;6416;52.182;7.650;2022-07-24T06:24:16;24.80;56.30
12704;DHT22;6416;52.182;7.650;2022-07-24T06:26:41;25.00;56.40
12704;DHT22;6416;52.182;7.650;2022-07-24T06:29:07;25.20;56.20
12704;DHT22;6416;52.182;7.650;2022-07-24T06:31:32;25.40;55.90
12704;DHT22;6416;52.182;7.650;2022-07-24T06:33:58;25.60;56.00
12704;DHT22;6416;52.182;7.650;2022-07-24T06:36:23;25.80;55.90
12704;DHT22;6416;52.182;7.650;2022-07-24T06:38:49;26.10;55.30
12704;DHT22;6416;52.182;7.650;2022-07-24T06:41:14;26.30;54.70
12704;DHT22;6416;52.182;7.650;2022-07-24T06:43:40;26.50;54.60
12704;DHT22;6416;52.182;7.650;2022-07-24T06:46:06;26.70;54.10
12704;DHT22;6416;52.182;7.650;2022-07-24T06:48:31;26.90;53.70
12704;DHT22;6416;52.182;7.650;2022-07-24T06:50:57;27.00;53.20
12704;DHT22;6416;52.182;7.650;2022-07-24T06:53:22;27.20;53.20
12704;DHT22;6416;52.182;7.650;2022-07-24T06:55:48;27.30;53.00
12704;DHT22;6416;52.182;7.650;2022-07-24T06:58:13;27.50;53.00
12704;DHT22;6416;52.182;7.650;2022-07-24T07:00:39;27.70;53.10
12704;DHT22;6416;52.182;7.650;2022-07-24T07:03:05;27.90;52.70
12704;DHT22;6416;52.182;7.650;2022-07-24T07:05:31;28.10;52.50
12704;DHT22;6416;52.182;7.650;2022-07-24T07:07:56;28.30;52.30
12704;DHT22;6416;52.182;7.650;2022-07-24T07:10:22;28.60;52.30
12704;DHT22;6416;52.182;7.650;2022-07-24T07:12:48;28.90;52.00
12704;DHT22;6416;52.182;7.650;2022-07-24T07:15:16;29.20;51.00
12704;DHT22;6416;52.182;7.650;2022-07-24T07:17:42;29.40;50.10
12704;DHT22;6416;52.182;7.650;2022-07-24T07:20:09;29.60;50.30
12704;DHT22;6416;52.182;7.650;2022-07-24T07:22:35;29.80;49.80
12704;DHT22;6416;52.182;7.650;2022-07-24T07:25:00;30.00;49.30
12704;DHT22;6416;52.182;7.650;2022-07-24T07:27:26;30.20;49.20
12704;DHT22;6416;52.182;7.650;2022-07-24T07:29:51;30.40;48.70
12704;DHT22;6416;52.182;7.650;2022-07-24T07:32:17;30.60;48.50
12704;DHT22;6416;52.182;7.650;2022-07-24T07:34:42;30.80;48.10
12704;DHT22;6416;52.182;7.650;2022-07-24T07:37:08;30.90;47.80
12704;DHT22;6416;52.182;7.650;2022-07-24T07:39:34;31.10;47.10
12704;DHT22;6416;52.182;7.650;2022-07-24T07:41:59;31.30;47.20
12704;DHT22;6416;52.182;7.650;2022-07-24T07:44:25;31.50;47.60
12704;DHT22;6416;52.182;7.650;2022-07-24T07:46:50;31.70;47.10
12704;DHT22;6416;52.182;7.650;2022-07-24T07:49:15;32.00;47.20
12704;DHT22;6416;52.182;7.650;2022-07-24T07:51:41;32.20;46.00
12704;DHT22;6416;52.182;7.650;2022-07-24T07:54:07;32.40;45.70
12704;DHT22;6416;52.182;7.650;2022-07-24T07:56:32;32.70;45.80
12704;DHT22;6416;52.182;7.650;2022-07-24T07:58:59;32.90;45.50
12704;DHT22;6416;52.182;7.650;2022-07-24T08:01:24;33.20;45.50
12704;DHT22;6416;52.182;7.650;2022-07-24T08:03:50;33.40;44.60
12704;DHT22;6416;52.182;7.650;2022-07-24T08:06:15;33.60;44.20
12704;DHT22;6416;52.182;7.650;2022-07-24T08:08:41;33.80;44.00
12704;DHT22;6416;52.182;7.650;2022-07-24T08:11:07;34.00;43.00
12704;DHT22;6416;52.182;7.650;2022-07-24T08:13:32;34.20;42.90
12704;DHT22;6416;52.182;7.650;2022-07-24T08:15:59;34.40;42.60
12704;DHT22;6416;52.182;7.650;2022-07-24T08:18:25;34.60;41.50
12704;DHT22;6416;52.182;7.650;2022-07-24T08:20:50;34.70;41.40
12704;DHT22;6416;52.182;7.650;2022-07-24T08:23:16;34.80;41.70
12704;DHT22;6416;52.182;7.650;2022-07-24T08:25:41;35.00;41.80
12704;DHT22;6416;52.182;7.650;2022-07-24T08:28:07;35.30;41.30
12704;DHT22;6416;52.182;7.650;2022-07-24T08:30:32;35.50;40.40
12704;DHT22;6416;52.182;7.650;2022-07-24T08:32:58;35.70;39.60
12704;DHT22;6416;52.182;7.650;2022-07-24T08:35:23;35.80;39.20
12704;DHT22;6416;52.182;7.650;2022-07-24T08:37:49;36.00;39.40
12704;DHT22;6416;52.182;7.650;2022-07-24T08:40:15;36.20;39.80
12704;DHT22;6416;52.182;7.650;2022-07-24T08:42:40;36.30;39.30
12704;DHT22;6416;52.182;7.650;2022-07-24T08:45:06;36.50;39.50
12704;DHT22;6416;52.182;7.650;2022-07-24T08:47:32;36.80;38.20
12704;DHT22;6416;52.182;7.650;2022-07-24T08:49:59;36.90;37.40
12704;DHT22;6416;52.182;7.650;2022-07-24T08:52:25;37.00;37.50
12704;DHT22;6416;52.182;7.650;2022-07-24T08:54:52;37.20;37.60
12704;DHT22;6416;52.182;7.650;2022-07-24T08:57:18;37.40;37.70
12704;DHT22;6416;52.182;7.650;2022-07-24T08:59:44;37.60;37.40
12704;DHT22;6416;52.182;7.650;2022-07-24T09:02:10;37.80;37.20
12704;DHT22;6416;52.182;7.650;2022-07-24T09:04:38;38.10;37.20
12704;DHT22;6416;52.182;7.650;2022-07-24T09:07:15;38.40;36.40
12704;DHT22;6416;52.182;7.650;2022-07-24T09:09:42;38.60;36.10
12704;DHT22;6416;52.182;7.650;2022-07-24T09:14:39;39.10;34.40
12704;DHT22;6416;52.182;7.650;2022-07-24T09:17:11;39.20;34.30
12704;DHT22;6416;52.182;7.650;2022-07-24T09:22:40;39.50;33.80
12704;DHT22;6416;52.182;7.650;2022-07-24T09:25:14;39.70;32.50
12704;DHT22;6416;52.182;7.650;2022-07-24T09:27:51;39.90;34.10
12704;DHT22;6416;52.182;7.650;2022-07-24T09:30:41;40.10;33.40
12704;DHT22;6416;52.182;7.650;2022-07-24T09:35:40;40.70;32.00
12704;DHT22;6416;52.182;7.650;2022-07-24T09:38:09;40.80;32.10
12704;DHT22;6416;52.182;7.650;2022-07-24T09:40:37;41.00;32.20
12704;DHT22;6416;52.182;7.650;2022-07-24T09:43:27;41.10;32.30
12704;DHT22;6416;52.182;7.650;2022-07-24T09:48:36;41.60;31.30
12704;DHT22;6416;52.182;7.650;2022-07-24T09:51:09;41.80;31.00
12704;DHT22;6416;52.182;7.650;2022-07-24T09:53:35;42.00;30.70
12704;DHT22;6416;52.182;7.650;2022-07-24T09:56:07;42.20;30.40
12704;DHT22;6416;52.182;7.650;2022-07-24T09:58:47;42.30;29.40
12704;DHT22;6416;52.182;7.650;2022-07-24T10:01:18;42.30;29.50
12704;DHT22;6416;52.182;7.650;2022-07-24T10:03:46;42.30;29.30
12704;DHT22;6416;52.182;7.650;2022-07-24T10:06:14;42.40;29.50
12704;DHT22;6416;52.182;7.650;2022-07-24T10:08:42;42.40;29.20
12704;DHT22;6416;52.182;7.650;2022-07-24T10:11:09;42.50;29.30
12704;DHT22;6416;52.182;7.650;2022-07-24T10:13:35;42.60;29.60
12704;DHT22;6416;52.182;7.650;2022-07-24T10:18:50;42.90;29.50
12704;DHT22;6416;52.182;7.650;2022-07-24T10:21:18;43.20;29.50
12704;DHT22;6416;52.182;7.650;2022-07-24T10:26:39;43.60;28.00
12704;DHT22;6416;52.182;7.650;2022-07-24T10:29:08;43.80;27.90
12704;DHT22;6416;52.182;7.650;2022-07-24T10:31:40;43.80;28.20
12704;DHT22;6416;52.182;7.650;2022-07-24T10:37:27;43.90;28.20
12704;DHT22;6416;52.182;7.650;2022-07-24T10:45:31;44.50;28.00
12704;DHT22;6416;52.182;7.650;2022-07-24T10:47:57;44.60;27.90
12704;DHT22;6416;52.182;7.650;2022-07-24T10:50:23;44.80;27.90
12704;DHT22;6416;52.182;7.650;2022-07-24T10:52:49;45.00;27.30
12704;DHT22;6416;52.182;7.650;2022-07-24T10:58:01;44.80;26.30
12704;DHT22;6416;52.182;7.650;2022-07-24T11:00:32;44.70;26.10
12704;DHT22;6416;52.182;7.650;2022-07-24T11:03:04;44.40;26.00
12704;DHT22;6416;52.182;7.650;2022-07-24T11:05:35;44.10;26.30
12704;DHT22;6416;52.182;7.650;2022-07-24T11:10:48;43.90;26.70
12704;DHT22;6416;52.182;7.650;2022-07-24T11:21:32;44.70;27.30
12704;DHT22;6416;52.182;7.650;2022-07-24T11:24:17;45.00;27.00
12704;DHT22;6416;52.182;7.650;2022-07-24T11:26:54;45.20;26.40
12704;DHT22;6416;52.182;7.650;2022-07-24T11:31:52;45.70;26.20
12704;DHT22;6416;52.182;7.650;2022-07-24T11:34:18;45.80;25.90
12704;DHT22;6416;52.182;7.650;2022-07-24T11:36:46;45.90;25.40
12704;DHT22;6416;52.182;7.650;2022-07-24T11:39:13;45.90;25.20
12704;DHT22;6416;52.182;7.650;2022-07-24T11:41:45;45.90;25.00
12704;DHT22;6416;52.182;7.650;2022-07-24T11:44:11;46.00;24.60
12704;DHT22;6416;52.182;7.650;2022-07-24T11:46:38;46.00;24.80
12704;DHT22;6416;52.182;7.650;2022-07-24T11:49:05;46.00;24.80
12704;DHT22;6416;52.182;7.650;2022-07-24T11:51:39;46.00;24.60
12704;DHT22;6416;52.182;7.650;2022-07-24T11:54:05;45.90;24.90
12704;DHT22;6416;52.182;7.650;2022-07-24T11:56:31;45.80;24.60
12704;DHT22;6416;52.182;7.650;2022-07-24T11:58:57;45.70;24.90
12704;DHT22;6416;52.182;7.650;2022-07-24T12:01:23;45.70;24.60
12704;DHT22;6416;52.182;7.650;2022-07-24T12:03:53;45.60;24.30
12704;DHT22;6416;52.182;7.650;2022-07-24T12:06:19;45.50;24.30
12704;DHT22;6416;52.182;7.650;2022-07-24T12:08:45;45.50;24.50
12704;DHT22;6416;52.182;7.650;2022-07-24T12:11:11;45.40;24.40
12704;DHT22;6416;52.182;7.650;2022-07-24T12:13:44;45.40;24.40
12704;DHT22;6416;52.182;7.650;2022-07-24T12:16:09;45.30;24.20
12704;DHT22;6416;52.182;7.650;2022-07-24T12:18:35;45.30;24.40
12704;DHT22;6416;52.182;7.650;2022-07-24T12:21:02;45.30;25.00
12704;DHT22;6416;52.182;7.650;2022-07-24T12:23:28;45.30;24.50
12704;DHT22;6416;52.182;7.650;2022-07-24T12:25:53;45.30;24.40
12704;DHT22;6416;52.182;7.650;2022-07-24T12:28:19;45.40;24.10
12704;DHT22;6416;52.182;7.650;2022-07-24T12:30:50;45.40;23.70
12704;DHT22;6416;52.182;7.650;2022-07-24T12:33:20;45.40;23.70
12704;DHT22;6416;52.182;7.650;2022-07-24T12:36:07;45.30;24.10
12704;DHT22;6416;52.182;7.650;2022-07-24T12:38:35;45.20;24.00
12704;DHT22;6416;52.182;7.650;2022-07-24T12:41:09;45.10;23.90
12704;DHT22;6416;52.182;7.650;2022-07-24T12:43:58;45.00;24.00
12704;DHT22;6416;52.182;7.650;2022-07-24T12:46:35;45.10;24.10
12704;DHT22;6416;52.182;7.650;2022-07-24T12:49:03;45.10;24.50
12704;DHT22;6416;52.182;7.650;2022-07-24T12:51:53;45.10;24.00
12704;DHT22;6416;52.182;7.650;2022-07-24T12:54:20;45.10;24.10
12704;DHT22;6416;52.182;7.650;2022-07-24T12:56:48;45.10;24.00
12704;DHT22;6416;52.182;7.650;2022-07-24T12:59:28;45.10;24.10
12704;DHT22;6416;52.182;7.650;2022-07-24T13:01:56;45.10;24.20
12704;DHT22;6416;52.182;7.650;2022-07-24T13:04:23;45.10;24.20
12704;DHT22;6416;52.182;7.650;2022-07-24T13:06:54;45.10;24.50
12704;DHT22;6416;52.182;7.650;2022-07-24T13:09:20;45.10;23.90
12704;DHT22;6416;52.182;7.650;2022-07-24T13:11:48;44.90;24.00
12704;DHT22;6416;52.182;7.650;2022-07-24T13:14:15;44.60;23.70
12704;DHT22;6416;52.182;7.650;2022-07-24T13:16:43;44.20;23.50
12704;DHT22;6416;52.182;7.650;2022-07-24T13:19:09;43.80;23.70
12704;DHT22;6416;52.182;7.650;2022-07-24T13:21:36;43.30;23.70
12704;DHT22;6416;52.182;7.650;2022-07-24T13:24:05;42.90;24.00
12704;DHT22;6416;52.182;7.650;2022-07-24T13:26:31;42.40;24.10
12704;DHT22;6416;52.182;7.650;2022-07-24T13:28:56;42.10;24.40
12704;DHT22;6416;52.182;7.650;2022-07-24T13:31:22;41.70;24.80
12704;DHT22;6416;52.182;7.650;2022-07-24T13:33:48;41.40;25.20
12704;DHT22;6416;52.182;7.650;2022-07-24T13:36:15;41.10;25.30
12704;DHT22;6416;52.182;7.650;2022-07-24T13:38:41;40.80;25.30
12704;DHT22;6416;52.182;7.650;2022-07-24T13:41:06;40.50;25.50
12704;DHT22;6416;52.182;7.650;2022-07-24T13:43:32;40.20;25.60
12704;DHT22;6416;52.182;7.650;2022-07-24T13:45:57;40.00;25.80
12704;DHT22;6416;52.182;7.650;2022-07-24T13:48:23;39.70;25.90
12704;DHT22;6416;52.182;7.650;2022-07-24T13:50:48;39.50;26.30
12704;DHT22;6416;52.182;7.650;2022-07-24T13:53:14;39.30;26.40
12704;DHT22;6416;52.182;7.650;2022-07-24T13:55:39;39.00;26.90
12704;DHT22;6416;52.182;7.650;2022-07-24T13:58:05;38.90;27.10
12704;DHT22;6416;52.182;7.650;2022-07-24T14:00:30;38.70;27.20
12704;DHT22;6416;52.182;7.650;2022-07-24T14:02:56;38.60;27.60
12704;DHT22;6416;52.182;7.650;2022-07-24T14:05:26;38.40;27.60
12704;DHT22;6416;52.182;7.650;2022-07-24T14:07:52;38.30;27.90
12704;DHT22;6416;52.182;7.650;2022-07-24T14:10:19;38.20;27.90
12704;DHT22;6416;52.182;7.650;2022-07-24T14:12:45;38.20;28.00
12704;DHT22;6416;52.182;7.650;2022-07-24T14:15:11;38.10;28.10
12704;DHT22;6416;52.182;7.650;2022-07-24T14:17:37;38.00;28.20
12704;DHT22;6416;52.182;7.650;2022-07-24T14:20:03;38.00;28.10
12704;DHT22;6416;52.182;7.650;2022-07-24T14:22:29;37.90;28.10
12704;DHT22;6416;52.182;7.650;2022-07-24T14:24:54;37.80;28.30
12704;DHT22;6416;52.182;7.650;2022-07-24T14:27:20;37.70;28.50
12704;DHT22;6416;52.182;7.650;2022-07-24T14:29:45;37.70;28.60
12704;DHT22;6416;52.182;7.650;2022-07-24T14:32:11;37.60;28.70
12704;DHT22;6416;52.182;7.650;2022-07-24T14:34:37;37.50;28.70
12704;DHT22;6416;52.182;7.650;2022-07-24T14:37:02;37.40;29.00
12704;DHT22;6416;52.182;7.650;2022-07-24T14:39:28;37.30;29.00
12704;DHT22;6416;52.182;7.650;2022-07-24T14:41:53;37.20;29.00
12704;DHT22;6416;52.182;7.650;2022-07-24T14:44:19;37.20;29.10
12704;DHT22;6416;52.182;7.650;2022-07-24T14:46:44;37.10;29.20
12704;DHT22;6416;52.182;7.650;2022-07-24T14:49:10;37.00;29.20
12704;DHT22;6416;52.182;7.650;2022-07-24T14:51:35;37.00;29.20
12704;DHT22;6416;52.182;7.650;2022-07-24T14:54:01;36.90;29.30
12704;DHT22;6416;52.182;7.650;2022-07-24T14:56:26;36.80;29.30
12704;DHT22;6416;52.182;7.650;2022-07-24T14:58:52;36.80;29.50
12704;DHT22;6416;52.182;7.650;2022-07-24T15:01:18;36.70;29.40
12704;DHT22;6416;52.182;7.650;2022-07-24T15:03:43;36.70;29.50
12704;DHT22;6416;52.182;7.650;2022-07-24T15:06:09;36.60;29.60
12704;DHT22;6416;52.182;7.650;2022-07-24T15:08:34;36.50;29.80
12704;DHT22;6416;52.182;7.650;2022-07-24T15:11:00;36.50;29.80
12704;DHT22;6416;52.182;7.650;2022-07-24T15:13:25;36.40;29.90
12704;DHT22;6416;52.182;7.650;2022-07-24T15:15:51;36.40;29.90
12704;DHT22;6416;52.182;7.650;2022-07-24T15:18:16;36.40;30.00
12704;DHT22;6416;52.182;7.650;2022-07-24T15:20:42;36.30;30.00
12704;DHT22;6416;52.182;7.650;2022-07-24T15:23:08;36.30;30.10
12704;DHT22;6416;52.182;7.650;2022-07-24T15:25:34;36.20;30.10
12704;DHT22;6416;52.182;7.650;2022-07-24T15:27:59;36.10;30.20
12704;DHT22;6416;52.182;7.650;2022-07-24T15:30:25;36.00;30.20
12704;DHT22;6416;52.182;7.650;2022-07-24T15:32:51;36.00;30.30
12704;DHT22;6416;52.182;7.650;2022-07-24T15:35:16;36.00;30.80
12704;DHT22;6416;52.182;7.650;2022-07-24T15:37:42;35.90;30.90
12704;DHT22;6416;52.182;7.650;2022-07-24T15:40:08;35.90;30.80
12704;DHT22;6416;52.182;7.650;2022-07-24T15:42:34;35.90;30.70
12704;DHT22;6416;52.182;7.650;2022-07-24T15:44:59;35.90;30.90
12704;DHT22;6416;52.182;7.650;2022-07-24T15:47:25;35.80;31.20
12704;DHT22;6416;52.182;7.650;2022-07-24T15:49:50;35.80;31.10
12704;DHT22;6416;52.182;7.650;2022-07-24T15:52:16;35.80;31.10
12704;DHT22;6416;52.182;7.650;2022-07-24T15:54:41;35.70;31.00
12704;DHT22;6416;52.182;7.650;2022-07-24T15:57:07;35.70;31.00
12704;DHT22;6416;52.182;7.650;2022-07-24T15:59:32;35.60;31.00
12704;DHT22;6416;52.182;7.650;2022-07-24T16:01:58;35.60;31.10
12704;DHT22;6416;52.182;7.650;2022-07-24T16:04:23;35.50;31.40
12704;DHT22;6416;52.182;7.650;2022-07-24T16:06:48;35.50;32.00
12704;DHT22;6416;52.182;7.650;2022-07-24T16:09:15;35.50;31.90
12704;DHT22;6416;52.182;7.650;2022-07-24T16:11:41;35.40;31.80
12704;DHT22;6416;52.182;7.650;2022-07-24T16:14:06;35.40;32.00
12704;DHT22;6416;52.182;7.650;2022-07-24T16:16:32;35.30;31.90
12704;DHT22;6416;52.182;7.650;2022-07-24T16:19:00;35.30;32.10
12704;DHT22;6416;52.182;7.650;2022-07-24T16:21:26;35.30;32.10